sensor_id;sensor_type;location;lat;lon;timestamp;P1;durP1;ratioP1;P2;durP2;ratioP2
11113;SDS011;5610;52.154;9.198;2023-02-01T00:01:46;22.47;;;5.07;;
11113;SDS011;5610;52.154;9.198;2023-02-01T00:04:32;13.53;;;4.90;;
11113;SDS011;5610;52.154;9.198;2023-02-01T00:07:19;17.60;;;4.97;;
11113;SDS011;5610;52.154;9.198;2023-02-01T00:10:04;18.73;;;5.70;;
11113;SDS011;5610;52.154;9.198;2023-02-01T00:12:51;19.50;;;4.53;;
11113;SDS011;5610;52.154;9.198;2023-02-01T00:15:36;18.00;;;4.73;;
11113;SDS011;5610;52.154;9.198;2023-02-01T00:18:21;12.83;;;4.03;;
11113;SDS011;5610;52.154;9.198;2023-02-01T00:21:07;23.03;;;5.30;;
11113;SDS011;5610;52.154;9.198;2023-02-01T00:23:54;18.10;;;5.30;;
11113;SDS011;5610;52.154;9.198;2023-02-01T00:26:40;20.97;;;5.17;;
11113;SDS011;5610;52.154;9.198;2023-02-01T00:29:27;17.87;;;4.33;;
11113;SDS011;5610;52.154;9.198;2023-02-01T00:32:12;18.70;;;5.00;;
11113;SDS011;5610;52.154;9.198;2023-02-01T00:34:58;20.23;;;5.73;;
11113;SDS011;5610;52.154;9.198;2023-02-01T00:37:43;16.87;;;4.87;;
11113;SDS011;5610;52.154;9.198;2023-02-01T00:40:30;16.60;;;4.90;;
11113;SDS011;5610;52.154;9.198;2023-02-01T00:43:15;22.50;;;5.70;;
11113;SDS011;5610;52.154;9.198;2023-02-01T00:46:01;18.00;;;4.50;;
11113;SDS011;5610;52.154;9.198;2023-02-01T00:48:47;21.87;;;5.10;;
11113;SDS011;5610;52.154;9.198;2023-02-01T00:51:33;23.20;;;5.90;;
11113;SDS011;5610;52.154;9.198;2023-02-01T00:54:18;18.17;;;5.67;;
11113;SDS011;5610;52.154;9.198;2023-02-01T00:57:05;16.77;;;4.50;;
11113;SDS011;5610;52.154;9.198;2023-02-01T00:59:50;14.70;;;5.23;;
11113;SDS011;5610;52.154;9.198;2023-02-01T01:02:35;20.13;;;5.57;;
11113;SDS011;5610;52.154;9.198;2023-02-01T01:05:20;17.17;;;5.30;;
11113;SDS011;5610;52.154;9.198;2023-02-01T01:08:06;14.30;;;5.00;;
11113;SDS011;5610;52.154;9.198;2023-02-01T01:10:51;18.80;;;5.17;;
11113;SDS011;5610;52.154;9.198;2023-02-01T01:13:38;12.90;;;5.00;;
11113;SDS011;5610;52.154;9.198;2023-02-01T01:16:24;13.40;;;5.50;;
11113;SDS011;5610;52.154;9.198;2023-02-01T01:19:12;29.60;;;5.60;;
11113;SDS011;5610;52.154;9.198;2023-02-01T01:21:58;17.50;;;4.70;;
11113;SDS011;5610;52.154;9.198;2023-02-01T01:24:43;12.70;;;4.90;;
11113;SDS011;5610;52.154;9.198;2023-02-01T01:27:28;21.10;;;5.67;;
11113;SDS011;5610;52.154;9.198;2023-02-01T01:30:15;20.83;;;5.23;;
11113;SDS011;5610;52.154;9.198;2023-02-01T01:33:01;23.87;;;5.03;;
11113;SDS011;5610;52.154;9.198;2023-02-01T01:35:46;16.37;;;4.27;;
11113;SDS011;5610;52.154;9.198;2023-02-01T01:38:32;16.90;;;4.97;;
11113;SDS011;5610;52.154;9.198;2023-02-01T01:41:18;20.87;;;5.37;;
11113;SDS011;5610;52.154;9.198;2023-02-01T01:44:06;24.40;;;4.70;;
11113;SDS011;5610;52.154;9.198;2023-02-01T01:47:13;16.50;;;5.00;;
11113;SDS011;5610;52.154;9.198;2023-02-01T01:50:00;16.27;;;4.60;;
11113;SDS011;5610;52.154;9.198;2023-02-01T01:52:46;13.80;;;4.50;;
11113;SDS011;5610;52.154;9.198;2023-02-01T01:55:35;17.23;;;4.80;;
11113;SDS011;5610;52.154;9.198;2023-02-01T01:58:26;15.40;;;4.77;;
11113;SDS011;5610;52.154;9.198;2023-02-01T02:01:13;15.90;;;5.83;;
11113;SDS011;5610;52.154;9.198;2023-02-01T02:04:00;21.93;;;5.87;;
11113;SDS011;5610;52.154;9.198;2023-02-01T02:06:47;17.13;;;5.20;;
11113;SDS011;5610;52.154;9.198;2023-02-01T02:09:36;10.37;;;4.30;;
11113;SDS011;5610;52.154;9.198;2023-02-01T02:12:21;17.17;;;5.50;;
11113;SDS011;5610;52.154;9.198;2023-02-01T02:15:07;16.10;;;4.90;;
11113;SDS011;5610;52.154;9.198;2023-02-01T02:17:55;13.30;;;4.30;;
11113;SDS011;5610;52.154;9.198;2023-02-01T02:20:51;14.53;;;4.80;;
11113;SDS011;5610;52.154;9.198;2023-02-01T02:27:21;17.20;;;4.40;;
11113;SDS011;5610;52.154;9.198;2023-02-01T02:30:25;14.70;;;5.00;;
11113;SDS011;5610;52.154;9.198;2023-02-01T02:36:38;17.20;;;4.80;;
11113;SDS011;5610;52.154;9.198;2023-02-01T02:39:36;15.23;;;4.90;;
11113;SDS011;5610;52.154;9.198;2023-02-01T02:42:29;17.60;;;5.20;;
11113;SDS011;5610;52.154;9.198;2023-02-01T02:45:41;21.00;;;5.50;;
11113;SDS011;5610;52.154;9.198;2023-02-01T02:48:52;17.43;;;5.40;;
11113;SDS011;5610;52.154;9.198;2023-02-01T02:51:45;15.20;;;5.40;;
11113;SDS011;5610;52.154;9.198;2023-02-01T02:54:51;18.77;;;5.47;;
11113;SDS011;5610;52.154;9.198;2023-02-01T02:57:40;20.37;;;5.80;;
11113;SDS011;5610;52.154;9.198;2023-02-01T03:00:45;14.33;;;5.83;;
11113;SDS011;5610;52.154;9.198;2023-02-01T03:03:48;13.47;;;5.33;;
11113;SDS011;5610;52.154;9.198;2023-02-01T03:06:54;18.37;;;5.47;;
11113;SDS011;5610;52.154;9.198;2023-02-01T03:09:40;19.60;;;5.00;;
11113;SDS011;5610;52.154;9.198;2023-02-01T03:12:29;22.07;;;5.80;;
11113;SDS011;5610;52.154;9.198;2023-02-01T03:15:39;15.23;;;5.53;;
11113;SDS011;5610;52.154;9.198;2023-02-01T03:18:29;16.20;;;5.63;;
11113;SDS011;5610;52.154;9.198;2023-02-01T03:21:21;18.40;;;5.67;;
11113;SDS011;5610;52.154;9.198;2023-02-01T03:24:12;18.33;;;6.03;;
11113;SDS011;5610;52.154;9.198;2023-02-01T03:27:05;17.70;;;5.40;;
11113;SDS011;5610;52.154;9.198;2023-02-01T03:29:56;16.80;;;5.20;;
11113;SDS011;5610;52.154;9.198;2023-02-01T03:32:47;18.67;;;5.50;;
11113;SDS011;5610;52.154;9.198;2023-02-01T03:35:47;22.73;;;5.50;;
11113;SDS011;5610;52.154;9.198;2023-02-01T03:38:39;17.70;;;5.57;;
11113;SDS011;5610;52.154;9.198;2023-02-01T03:41:37;13.17;;;4.90;;
11113;SDS011;5610;52.154;9.198;2023-02-01T03:44:26;12.50;;;5.20;;
11113;SDS011;5610;52.154;9.198;2023-02-01T03:47:16;20.90;;;6.47;;
11113;SDS011;5610;52.154;9.198;2023-02-01T03:50:09;25.30;;;5.83;;
11113;SDS011;5610;52.154;9.198;2023-02-01T03:52:59;16.50;;;5.67;;
11113;SDS011;5610;52.154;9.198;2023-02-01T03:55:49;20.17;;;6.67;;
11113;SDS011;5610;52.154;9.198;2023-02-01T03:58:38;14.83;;;5.17;;
11113;SDS011;5610;52.154;9.198;2023-02-01T04:01:24;20.23;;;6.63;;
11113;SDS011;5610;52.154;9.198;2023-02-01T04:04:11;19.70;;;5.30;;
11113;SDS011;5610;52.154;9.198;2023-02-01T04:07:03;12.87;;;4.40;;
11113;SDS011;5610;52.154;9.198;2023-02-01T04:09:49;11.00;;;4.80;;
11113;SDS011;5610;52.154;9.198;2023-02-01T04:12:34;12.90;;;4.80;;
11113;SDS011;5610;52.154;9.198;2023-02-01T04:15:21;13.20;;;4.93;;
11113;SDS011;5610;52.154;9.198;2023-02-01T04:18:07;16.27;;;4.47;;
11113;SDS011;5610;52.154;9.198;2023-02-01T04:20:52;20.73;;;5.80;;
11113;SDS011;5610;52.154;9.198;2023-02-01T04:23:37;18.03;;;5.03;;
11113;SDS011;5610;52.154;9.198;2023-02-01T04:26:23;18.63;;;5.80;;
11113;SDS011;5610;52.154;9.198;2023-02-01T04:29:08;14.43;;;5.67;;
11113;SDS011;5610;52.154;9.198;2023-02-01T04:31:55;12.20;;;7.20;;
11113;SDS011;5610;52.154;9.198;2023-02-01T04:34:40;18.53;;;5.40;;
11113;SDS011;5610;52.154;9.198;2023-02-01T04:37:25;12.60;;;5.53;;
11113;SDS011;5610;52.154;9.198;2023-02-01T04:40:11;21.63;;;5.50;;
11113;SDS011;5610;52.154;9.198;2023-02-01T04:42:57;15.50;;;6.17;;
11113;SDS011;5610;52.154;9.198;2023-02-01T04:45:46;16.00;;;4.90;;
11113;SDS011;5610;52.154;9.198;2023-02-01T04:48:33;21.13;;;6.30;;
11113;SDS011;5610;52.154;9.198;2023-02-01T04:51:18;18.17;;;6.47;;
11113;SDS011;5610;52.154;9.198;2023-02-01T04:54:04;21.63;;;5.70;;
11113;SDS011;5610;52.154;9.198;2023-02-01T04:56:49;14.60;;;5.63;;
11113;SDS011;5610;52.154;9.198;2023-02-01T04:59:34;18.03;;;5.60;;
11113;SDS011;5610;52.154;9.198;2023-02-01T05:02:20;13.83;;;4.60;;
11113;SDS011;5610;52.154;9.198;2023-02-01T05:05:07;19.23;;;5.30;;
11113;SDS011;5610;52.154;9.198;2023-02-01T05:07:53;13.83;;;5.53;;
11113;SDS011;5610;52.154;9.198;2023-02-01T05:10:38;15.83;;;5.40;;
11113;SDS011;5610;52.154;9.198;2023-02-01T05:13:23;15.13;;;4.93;;
11113;SDS011;5610;52.154;9.198;2023-02-01T05:16:27;18.70;;;4.90;;
11113;SDS011;5610;52.154;9.198;2023-02-01T05:19:12;13.70;;;4.87;;
11113;SDS011;5610;52.154;9.198;2023-02-01T05:21:59;14.60;;;4.77;;
11113;SDS011;5610;52.154;9.198;2023-02-01T05:24:45;15.00;;;5.13;;
11113;SDS011;5610;52.154;9.198;2023-02-01T05:27:30;18.70;;;5.40;;
11113;SDS011;5610;52.154;9.198;2023-02-01T05:30:15;9.77;;;4.33;;
11113;SDS011;5610;52.154;9.198;2023-02-01T05:33:01;13.97;;;5.23;;
11113;SDS011;5610;52.154;9.198;2023-02-01T05:35:46;15.20;;;4.40;;
11113;SDS011;5610;52.154;9.198;2023-02-01T05:38:33;12.97;;;4.83;;
11113;SDS011;5610;52.154;9.198;2023-02-01T05:41:18;14.23;;;5.37;;
11113;SDS011;5610;52.154;9.198;2023-02-01T05:44:04;14.67;;;4.73;;
11113;SDS011;5610;52.154;9.198;2023-02-01T05:46:51;15.77;;;4.90;;
11113;SDS011;5610;52.154;9.198;2023-02-01T05:49:36;11.90;;;4.43;;
11113;SDS011;5610;52.154;9.198;2023-02-01T05:52:21;14.57;;;3.90;;
11113;SDS011;5610;52.154;9.198;2023-02-01T05:55:08;12.60;;;5.10;;
11113;SDS011;5610;52.154;9.198;2023-02-01T05:57:53;13.30;;;4.90;;
11113;SDS011;5610;52.154;9.198;2023-02-01T06:00:39;10.23;;;5.03;;
11113;SDS011;5610;52.154;9.198;2023-02-01T06:03:24;16.70;;;6.27;;
11113;SDS011;5610;52.154;9.198;2023-02-01T06:06:10;16.90;;;6.30;;
11113;SDS011;5610;52.154;9.198;2023-02-01T06:08:55;12.60;;;4.97;;
11113;SDS011;5610;52.154;9.198;2023-02-01T06:11:42;12.27;;;4.10;;
11113;SDS011;5610;52.154;9.198;2023-02-01T06:14:27;8.00;;;3.40;;
11113;SDS011;5610;52.154;9.198;2023-02-01T06:17:12;13.43;;;4.90;;
11113;SDS011;5610;52.154;9.198;2023-02-01T06:19:58;14.77;;;4.50;;
11113;SDS011;5610;52.154;9.198;2023-02-01T06:22:43;12.20;;;4.90;;
11113;SDS011;5610;52.154;9.198;2023-02-01T06:25:28;16.00;;;5.13;;
11113;SDS011;5610;52.154;9.198;2023-02-01T06:28:15;15.33;;;4.40;;
11113;SDS011;5610;52.154;9.198;2023-02-01T06:31:02;15.30;;;4.90;;
11113;SDS011;5610;52.154;9.198;2023-02-01T06:33:49;13.97;;;5.17;;
11113;SDS011;5610;52.154;9.198;2023-02-01T06:36:37;13.93;;;4.77;;
11113;SDS011;5610;52.154;9.198;2023-02-01T06:39:24;19.73;;;5.47;;
11113;SDS011;5610;52.154;9.198;2023-02-01T06:42:11;19.23;;;7.00;;
11113;SDS011;5610;52.154;9.198;2023-02-01T06:44:57;22.97;;;5.23;;
11113;SDS011;5610;52.154;9.198;2023-02-01T06:47:43;15.90;;;4.57;;
11113;SDS011;5610;52.154;9.198;2023-02-01T06:50:28;18.43;;;5.77;;
11113;SDS011;5610;52.154;9.198;2023-02-01T06:53:14;18.67;;;6.23;;
11113;SDS011;5610;52.154;9.198;2023-02-01T06:56:00;23.17;;;5.73;;
11113;SDS011;5610;52.154;9.198;2023-02-01T06:58:46;16.83;;;5.17;;
11113;SDS011;5610;52.154;9.198;2023-02-01T07:01:34;16.20;;;5.10;;
11113;SDS011;5610;52.154;9.198;2023-02-01T07:04:19;16.90;;;5.60;;
11113;SDS011;5610;52.154;9.198;2023-02-01T07:07:04;14.27;;;5.30;;
11113;SDS011;5610;52.154;9.198;2023-02-01T07:09:50;14.70;;;5.13;;
11113;SDS011;5610;52.154;9.198;2023-02-01T07:12:35;13.90;;;4.20;;
11113;SDS011;5610;52.154;9.198;2023-02-01T07:15:21;16.10;;;5.10;;
11113;SDS011;5610;52.154;9.198;2023-02-01T07:18:07;17.77;;;6.27;;
11113;SDS011;5610;52.154;9.198;2023-02-01T07:20:53;16.83;;;5.30;;
11113;SDS011;5610;52.154;9.198;2023-02-01T07:23:38;12.83;;;6.00;;
11113;SDS011;5610;52.154;9.198;2023-02-01T07:26:24;12.70;;;4.57;;
11113;SDS011;5610;52.154;9.198;2023-02-01T07:29:09;20.87;;;8.13;;
11113;SDS011;5610;52.154;9.198;2023-02-01T07:31:54;29.00;;;12.33;;
11113;SDS011;5610;52.154;9.198;2023-02-01T07:34:41;21.67;;;5.37;;
11113;SDS011;5610;52.154;9.198;2023-02-01T07:37:26;12.30;;;4.20;;
11113;SDS011;5610;52.154;9.198;2023-02-01T07:40:11;17.13;;;5.40;;
11113;SDS011;5610;52.154;9.198;2023-02-01T07:42:57;18.77;;;4.70;;
11113;SDS011;5610;52.154;9.198;2023-02-01T07:45:49;20.33;;;7.67;;
11113;SDS011;5610;52.154;9.198;2023-02-01T07:48:35;14.87;;;5.97;;
11113;SDS011;5610;52.154;9.198;2023-02-01T07:51:22;15.10;;;4.20;;
11113;SDS011;5610;52.154;9.198;2023-02-01T07:54:08;20.13;;;4.70;;
11113;SDS011;5610;52.154;9.198;2023-02-01T07:56:53;17.23;;;4.90;;
11113;SDS011;5610;52.154;9.198;2023-02-01T07:59:38;17.33;;;5.93;;
11113;SDS011;5610;52.154;9.198;2023-02-01T08:02:44;22.13;;;9.30;;
11113;SDS011;5610;52.154;9.198;2023-02-01T08:05:30;16.27;;;5.40;;
11113;SDS011;5610;52.154;9.198;2023-02-01T08:08:17;16.93;;;7.33;;
11113;SDS011;5610;52.154;9.198;2023-02-01T08:11:03;14.60;;;5.07;;
11113;SDS011;5610;52.154;9.198;2023-02-01T08:13:50;15.83;;;5.10;;
11113;SDS011;5610;52.154;9.198;2023-02-01T08:16:35;16.60;;;4.67;;
11113;SDS011;5610;52.154;9.198;2023-02-01T08:19:22;10.10;;;5.20;;
11113;SDS011;5610;52.154;9.198;2023-02-01T08:22:08;15.60;;;4.80;;
11113;SDS011;5610;52.154;9.198;2023-02-01T08:24:54;21.03;;;6.10;;
11113;SDS011;5610;52.154;9.198;2023-02-01T08:27:45;16.03;;;6.07;;
11113;SDS011;5610;52.154;9.198;2023-02-01T08:30:30;14.67;;;6.30;;
11113;SDS011;5610;52.154;9.198;2023-02-01T08:33:15;19.43;;;4.40;;
11113;SDS011;5610;52.154;9.198;2023-02-01T08:36:01;19.93;;;6.00;;
11113;SDS011;5610;52.154;9.198;2023-02-01T08:38:47;13.10;;;5.77;;
11113;SDS011;5610;52.154;9.198;2023-02-01T08:41:34;16.30;;;5.67;;
11113;SDS011;5610;52.154;9.198;2023-02-01T08:44:19;12.47;;;4.63;;
11113;SDS011;5610;52.154;9.198;2023-02-01T08:47:05;11.80;;;4.73;;
11113;SDS011;5610;52.154;9.198;2023-02-01T08:49:50;13.73;;;5.23;;
11113;SDS011;5610;52.154;9.198;2023-02-01T08:52:37;14.67;;;4.47;;
11113;SDS011;5610;52.154;9.198;2023-02-01T08:55:22;16.73;;;4.20;;
11113;SDS011;5610;52.154;9.198;2023-02-01T08:58:08;12.80;;;4.60;;
11113;SDS011;5610;52.154;9.198;2023-02-01T09:00:54;14.93;;;4.47;;
11113;SDS011;5610;52.154;9.198;2023-02-01T09:03:39;11.60;;;5.37;;
11113;SDS011;5610;52.154;9.198;2023-02-01T09:06:25;18.23;;;6.07;;
11113;SDS011;5610;52.154;9.198;2023-02-01T09:09:10;14.97;;;9.80;;
11113;SDS011;5610;52.154;9.198;2023-02-01T09:11:55;19.23;;;5.43;;
11113;SDS011;5610;52.154;9.198;2023-02-01T09:14:42;19.63;;;5.13;;
11113;SDS011;5610;52.154;9.198;2023-02-01T09:17:28;17.07;;;6.63;;
11113;SDS011;5610;52.154;9.198;2023-02-01T09:20:14;19.20;;;6.67;;
11113;SDS011;5610;52.154;9.198;2023-02-01T09:23:00;15.63;;;5.03;;
11113;SDS011;5610;52.154;9.198;2023-02-01T09:25:45;18.07;;;5.10;;
11113;SDS011;5610;52.154;9.198;2023-02-01T09:28:33;20.40;;;6.70;;
11113;SDS011;5610;52.154;9.198;2023-02-01T09:31:20;14.00;;;5.20;;
11113;SDS011;5610;52.154;9.198;2023-02-01T09:34:05;14.20;;;4.97;;
11113;SDS011;5610;52.154;9.198;2023-02-01T09:36:51;11.90;;;5.43;;
11113;SDS011;5610;52.154;9.198;2023-02-01T09:39:36;12.10;;;6.00;;
11113;SDS011;5610;52.154;9.198;2023-02-01T09:42:26;12.33;;;6.33;;
11113;SDS011;5610;52.154;9.198;2023-02-01T09:45:32;12.07;;;5.33;;
11113;SDS011;5610;52.154;9.198;2023-02-01T09:48:29;12.07;;;5.00;;
11113;SDS011;5610;52.154;9.198;2023-02-01T09:51:19;19.83;;;5.50;;
11113;SDS011;5610;52.154;9.198;2023-02-01T09:54:09;14.47;;;6.47;;
11113;SDS011;5610;52.154;9.198;2023-02-01T09:57:00;14.40;;;5.67;;
11113;SDS011;5610;52.154;9.198;2023-02-01T09:59:51;16.97;;;5.13;;
11113;SDS011;5610;52.154;9.198;2023-02-01T10:02:42;14.77;;;4.60;;
11113;SDS011;5610;52.154;9.198;2023-02-01T10:05:35;18.50;;;4.80;;
11113;SDS011;5610;52.154;9.198;2023-02-01T10:08:33;10.90;;;3.43;;
11113;SDS011;5610;52.154;9.198;2023-02-01T10:11:40;10.07;;;5.00;;
11113;SDS011;5610;52.154;9.198;2023-02-01T10:14:38;11.07;;;4.40;;
11113;SDS011;5610;52.154;9.198;2023-02-01T10:17:37;10.10;;;4.20;;
11113;SDS011;5610;52.154;9.198;2023-02-01T10:20:41;12.73;;;3.70;;
11113;SDS011;5610;52.154;9.198;2023-02-01T10:26:47;13.53;;;3.97;;
11113;SDS011;5610;52.154;9.198;2023-02-01T10:29:38;18.10;;;5.10;;
11113;SDS011;5610;52.154;9.198;2023-02-01T10:32:28;15.80;;;4.60;;
11113;SDS011;5610;52.154;9.198;2023-02-01T10:35:16;15.63;;;4.10;;
11113;SDS011;5610;52.154;9.198;2023-02-01T10:38:04;12.80;;;4.97;;
11113;SDS011;5610;52.154;9.198;2023-02-01T10:40:59;17.60;;;6.90;;
11113;SDS011;5610;52.154;9.198;2023-02-01T10:43:48;10.70;;;4.10;;
11113;SDS011;5610;52.154;9.198;2023-02-01T10:46:38;16.30;;;5.50;;
11113;SDS011;5610;52.154;9.198;2023-02-01T10:49:24;15.10;;;4.67;;
11113;SDS011;5610;52.154;9.198;2023-02-01T10:52:14;13.93;;;5.40;;
11113;SDS011;5610;52.154;9.198;2023-02-01T10:58:15;9.03;;;5.00;;
11113;SDS011;5610;52.154;9.198;2023-02-01T11:01:03;12.20;;;4.50;;
11113;SDS011;5610;52.154;9.198;2023-02-01T11:03:51;14.07;;;4.33;;
11113;SDS011;5610;52.154;9.198;2023-02-01T11:06:38;14.73;;;7.23;;
11113;SDS011;5610;52.154;9.198;2023-02-01T11:09:25;22.07;;;15.13;;
11113;SDS011;5610;52.154;9.198;2023-02-01T11:12:22;17.13;;;10.03;;
11113;SDS011;5610;52.154;9.198;2023-02-01T11:15:18;32.70;;;19.27;;
11113;SDS011;5610;52.154;9.198;2023-02-01T11:18:12;30.60;;;15.77;;
11113;SDS011;5610;52.154;9.198;2023-02-01T11:21:00;12.83;;;7.67;;
11113;SDS011;5610;52.154;9.198;2023-02-01T11:23:47;19.90;;;15.00;;
11113;SDS011;5610;52.154;9.198;2023-02-01T11:26:33;19.23;;;12.37;;
11113;SDS011;5610;52.154;9.198;2023-02-01T11:29:19;15.87;;;8.93;;
11113;SDS011;5610;52.154;9.198;2023-02-01T11:32:12;15.63;;;9.20;;
11113;SDS011;5610;52.154;9.198;2023-02-01T11:35:00;17.00;;;10.63;;
11113;SDS011;5610;52.154;9.198;2023-02-01T11:37:50;12.40;;;4.53;;
11113;SDS011;5610;52.154;9.198;2023-02-01T11:40:39;10.67;;;4.30;;
11113;SDS011;5610;52.154;9.198;2023-02-01T11:43:25;13.90;;;5.73;;
11113;SDS011;5610;52.154;9.198;2023-02-01T11:46:17;14.43;;;5.50;;
11113;SDS011;5610;52.154;9.198;2023-02-01T11:49:14;14.87;;;5.80;;
11113;SDS011;5610;52.154;9.198;2023-02-01T11:52:07;9.30;;;4.07;;
11113;SDS011;5610;52.154;9.198;2023-02-01T11:55:05;13.63;;;5.30;;
11113;SDS011;5610;52.154;9.198;2023-02-01T11:58:06;15.97;;;4.97;;
11113;SDS011;5610;52.154;9.198;2023-02-01T12:04:36;18.77;;;4.60;;
11113;SDS011;5610;52.154;9.198;2023-02-01T12:07:32;13.53;;;4.40;;
11113;SDS011;5610;52.154;9.198;2023-02-01T12:10:32;14.50;;;5.03;;
11113;SDS011;5610;52.154;9.198;2023-02-01T12:13:29;11.07;;;4.70;;
11113;SDS011;5610;52.154;9.198;2023-02-01T12:16:30;15.33;;;6.50;;
11113;SDS011;5610;52.154;9.198;2023-02-01T12:19:23;10.70;;;5.20;;
11113;SDS011;5610;52.154;9.198;2023-02-01T12:22:22;22.47;;;9.77;;
11113;SDS011;5610;52.154;9.198;2023-02-01T12:25:21;10.67;;;4.83;;
11113;SDS011;5610;52.154;9.198;2023-02-01T12:28:23;11.07;;;4.47;;
11113;SDS011;5610;52.154;9.198;2023-02-01T12:31:27;12.37;;;4.47;;
11113;SDS011;5610;52.154;9.198;2023-02-01T12:34:37;10.80;;;5.50;;
11113;SDS011;5610;52.154;9.198;2023-02-01T12:37:37;12.87;;;5.57;;
11113;SDS011;5610;52.154;9.198;2023-02-01T12:40:43;7.30;;;4.33;;
11113;SDS011;5610;52.154;9.198;2023-02-01T12:43:40;21.13;;;9.03;;
11113;SDS011;5610;52.154;9.198;2023-02-01T12:46:30;10.97;;;6.50;;
11113;SDS011;5610;52.154;9.198;2023-02-01T12:49:27;8.87;;;3.43;;
11113;SDS011;5610;52.154;9.198;2023-02-01T12:52:20;8.10;;;3.03;;
11113;SDS011;5610;52.154;9.198;2023-02-01T12:55:15;12.00;;;4.53;;
11113;SDS011;5610;52.154;9.198;2023-02-01T12:58:07;6.30;;;4.00;;
11113;SDS011;5610;52.154;9.198;2023-02-01T13:00:58;7.43;;;3.20;;
11113;SDS011;5610;52.154;9.198;2023-02-01T13:03:50;7.33;;;4.10;;
11113;SDS011;5610;52.154;9.198;2023-02-01T13:06:41;8.30;;;3.53;;
11113;SDS011;5610;52.154;9.198;2023-02-01T13:09:30;6.47;;;3.83;;
11113;SDS011;5610;52.154;9.198;2023-02-01T13:12:26;5.67;;;3.20;;
11113;SDS011;5610;52.154;9.198;2023-02-01T13:15:17;7.73;;;4.07;;
11113;SDS011;5610;52.154;9.198;2023-02-01T13:18:06;8.20;;;4.73;;
11113;SDS011;5610;52.154;9.198;2023-02-01T13:21:01;6.10;;;3.50;;
11113;SDS011;5610;52.154;9.198;2023-02-01T13:23:50;8.63;;;3.63;;
11113;SDS011;5610;52.154;9.198;2023-02-01T13:26:37;7.23;;;3.47;;
11113;SDS011;5610;52.154;9.198;2023-02-01T13:29:23;9.70;;;4.57;;
11113;SDS011;5610;52.154;9.198;2023-02-01T13:32:17;7.33;;;3.57;;
11113;SDS011;5610;52.154;9.198;2023-02-01T13:35:19;8.83;;;3.30;;
11113;SDS011;5610;52.154;9.198;2023-02-01T13:38:36;6.43;;;3.40;;
11113;SDS011;5610;52.154;9.198;2023-02-01T13:41:41;7.80;;;2.97;;
11113;SDS011;5610;52.154;9.198;2023-02-01T13:44:37;4.47;;;2.70;;
11113;SDS011;5610;52.154;9.198;2023-02-01T13:47:26;9.00;;;3.87;;
11113;SDS011;5610;52.154;9.198;2023-02-01T13:50:19;11.57;;;4.00;;
11113;SDS011;5610;52.154;9.198;2023-02-01T13:53:13;6.83;;;4.27;;
11113;SDS011;5610;52.154;9.198;2023-02-01T13:56:03;11.47;;;5.10;;
11113;SDS011;5610;52.154;9.198;2023-02-01T13:58:55;12.60;;;6.50;;
11113;SDS011;5610;52.154;9.198;2023-02-01T14:01:40;13.67;;;5.17;;
11113;SDS011;5610;52.154;9.198;2023-02-01T14:07:31;9.00;;;4.60;;
11113;SDS011;5610;52.154;9.198;2023-02-01T14:13:34;7.40;;;3.20;;
11113;SDS011;5610;52.154;9.198;2023-02-01T14:16:22;6.53;;;4.93;;
11113;SDS011;5610;52.154;9.198;2023-02-01T14:19:18;2.30;;;1.00;;
11113;SDS011;5610;52.154;9.198;2023-02-01T14:25:18;1.90;;;1.20;;
11113;SDS011;5610;52.154;9.198;2023-02-01T14:28:09;3.10;;;1.20;;
11113;SDS011;5610;52.154;9.198;2023-02-01T14:30:56;4.05;;;0.85;;
11113;SDS011;5610;52.154;9.198;2023-02-01T14:33:44;1.40;;;0.80;;
11113;SDS011;5610;52.154;9.198;2023-02-01T14:36:40;0.95;;;0.73;;
11113;SDS011;5610;52.154;9.198;2023-02-01T14:39:30;7.03;;;1.10;;
11113;SDS011;5610;52.154;9.198;2023-02-01T14:42:23;3.13;;;0.80;;
11113;SDS011;5610;52.154;9.198;2023-02-01T14:48:46;1.75;;;1.30;;
11113;SDS011;5610;52.154;9.198;2023-02-01T14:51:32;2.08;;;1.10;;
11113;SDS011;5610;52.154;9.198;2023-02-01T14:54:17;4.13;;;1.40;;
11113;SDS011;5610;52.154;9.198;2023-02-01T14:57:04;4.35;;;1.95;;
11113;SDS011;5610;52.154;9.198;2023-02-01T14:59:52;1.48;;;1.02;;
11113;SDS011;5610;52.154;9.198;2023-02-01T15:02:43;4.97;;;1.60;;
11113;SDS011;5610;52.154;9.198;2023-02-01T15:05:31;6.93;;;1.45;;
11113;SDS011;5610;52.154;9.198;2023-02-01T15:08:18;2.75;;;1.90;;
11113;SDS011;5610;52.154;9.198;2023-02-01T15:11:11;4.63;;;2.65;;
11113;SDS011;5610;52.154;9.198;2023-02-01T15:13:59;16.58;;;11.00;;
11113;SDS011;5610;52.154;9.198;2023-02-01T15:16:45;7.72;;;3.70;;
11113;SDS011;5610;52.154;9.198;2023-02-01T15:19:37;8.03;;;3.20;;
11113;SDS011;5610;52.154;9.198;2023-02-01T15:22:23;3.75;;;2.00;;
11113;SDS011;5610;52.154;9.198;2023-02-01T15:25:17;5.25;;;1.90;;
11113;SDS011;5610;52.154;9.198;2023-02-01T15:28:04;6.85;;;4.97;;
11113;SDS011;5610;52.154;9.198;2023-02-01T15:30:54;4.10;;;2.33;;
11113;SDS011;5610;52.154;9.198;2023-02-01T15:33:42;12.97;;;5.53;;
11113;SDS011;5610;52.154;9.198;2023-02-01T15:36:41;9.50;;;2.70;;
11113;SDS011;5610;52.154;9.198;2023-02-01T15:39:28;9.98;;;3.47;;
11113;SDS011;5610;52.154;9.198;2023-02-01T15:42:16;10.07;;;4.50;;
11113;SDS011;5610;52.154;9.198;2023-02-01T15:45:03;12.60;;;3.90;;
11113;SDS011;5610;52.154;9.198;2023-02-01T15:47:49;10.53;;;4.17;;
11113;SDS011;5610;52.154;9.198;2023-02-01T15:50:37;17.77;;;5.10;;
11113;SDS011;5610;52.154;9.198;2023-02-01T15:53:25;14.30;;;3.43;;
11113;SDS011;5610;52.154;9.198;2023-02-01T15:56:16;9.40;;;2.10;;
11113;SDS011;5610;52.154;9.198;2023-02-01T15:59:12;4.57;;;2.50;;
11113;SDS011;5610;52.154;9.198;2023-02-01T16:02:00;4.20;;;1.70;;
11113;SDS011;5610;52.154;9.198;2023-02-01T16:04:47;5.07;;;1.70;;
11113;SDS011;5610;52.154;9.198;2023-02-01T16:07:34;7.57;;;1.83;;
11113;SDS011;5610;52.154;9.198;2023-02-01T16:10:21;7.65;;;3.30;;
11113;SDS011;5610;52.154;9.198;2023-02-01T16:13:11;9.73;;;2.75;;
11113;SDS011;5610;52.154;9.198;2023-02-01T16:15:57;10.18;;;5.15;;
11113;SDS011;5610;52.154;9.198;2023-02-01T16:18:43;9.82;;;5.32;;
11113;SDS011;5610;52.154;9.198;2023-02-01T16:21:28;13.25;;;3.40;;
11113;SDS011;5610;52.154;9.198;2023-02-01T16:24:13;7.60;;;2.67;;
11113;SDS011;5610;52.154;9.198;2023-02-01T16:26:59;8.23;;;2.70;;
11113;SDS011;5610;52.154;9.198;2023-02-01T16:29:46;6.85;;;2.35;;
11113;SDS011;5610;52.154;9.198;2023-02-01T16:32:31;9.00;;;5.28;;
11113;SDS011;5610;52.154;9.198;2023-02-01T16:35:18;13.80;;;5.30;;
11113;SDS011;5610;52.154;9.198;2023-02-01T16:38:09;10.68;;;5.10;;
11113;SDS011;5610;52.154;9.198;2023-02-01T16:40:56;17.13;;;5.10;;
11113;SDS011;5610;52.154;9.198;2023-02-01T16:43:43;11.88;;;5.32;;
11113;SDS011;5610;52.154;9.198;2023-02-01T16:46:31;18.98;;;5.60;;
11113;SDS011;5610;52.154;9.198;2023-02-01T16:49:20;19.87;;;7.17;;
11113;SDS011;5610;52.154;9.198;2023-02-01T16:52:09;16.20;;;7.03;;
11113;SDS011;5610;52.154;9.198;2023-02-01T16:54:58;13.50;;;4.60;;
11113;SDS011;5610;52.154;9.198;2023-02-01T16:57:44;15.60;;;5.23;;
11113;SDS011;5610;52.154;9.198;2023-02-01T17:00:29;14.60;;;4.53;;
11113;SDS011;5610;52.154;9.198;2023-02-01T17:03:19;15.37;;;5.03;;
11113;SDS011;5610;52.154;9.198;2023-02-01T17:06:05;13.37;;;4.60;;
11113;SDS011;5610;52.154;9.198;2023-02-01T17:08:53;14.67;;;5.10;;
11113;SDS011;5610;52.154;9.198;2023-02-01T17:11:41;13.87;;;4.30;;
11113;SDS011;5610;52.154;9.198;2023-02-01T17:14:26;15.67;;;4.50;;
11113;SDS011;5610;52.154;9.198;2023-02-01T17:17:14;12.77;;;5.97;;
11113;SDS011;5610;52.154;9.198;2023-02-01T17:20:01;16.87;;;4.20;;
11113;SDS011;5610;52.154;9.198;2023-02-01T17:22:48;12.70;;;3.70;;
11113;SDS011;5610;52.154;9.198;2023-02-01T17:25:34;9.20;;;4.80;;
11113;SDS011;5610;52.154;9.198;2023-02-01T17:28:19;8.23;;;3.90;;
11113;SDS011;5610;52.154;9.198;2023-02-01T17:31:05;8.40;;;3.17;;
11113;SDS011;5610;52.154;9.198;2023-02-01T17:33:50;11.27;;;4.70;;